Time;durP1;ratioP1;P1;durP2;ratioP2;P2;SDS_P1;SDS_P2;PMS_P1;PMS_P2;Temp;Humidity;BMP_temperature;BMP_pressure;BME280_temperature;BME280_humidity;BME280_pressure;Samples;Min_cycle;Max_cycle;Signal;HPM_P1;HPM_P2
2021/01/05 00:01:29;;;;;;;10.10;7.88;;;2.80;99.90;;;;;;4992876;28;20041;-91
2021/01/05 00:04:12;;;;;;;;;;;;;;;;;;;;;
2021/01/05 00:07:04;;;;;;;12.45;8.63;;;2.80;99.90;;;;;;4998946;28;20028;-92
2021/01/05 00:09:58;;;;;;;11.48;8.02;;;2.70;99.90;;;;;;5013771;28;20065;-92
2021/01/05 00:12:29;;;;;;;11.43;8.23;;;2.70;99.90;;;;;;4988519;28;20031;-92
2021/01/05 00:14:58;;;;;;;10.75;8.18;;;2.70;99.90;;;;;;4977043;28;20058;-92
2021/01/05 00:17:57;;;;;;;12.43;8.70;;;2.70;99.90;;;;;;4994352;28;20092;-91
2021/01/05 00:20:44;;;;;;;10.55;7.88;;;2.70;99.90;;;;;;4962400;28;20039;-91
2021/01/05 00:23:12;;;;;;;12.45;8.23;;;2.70;99.90;;;;;;5009296;28;20038;-91
2021/01/05 00:25:45;;;;;;;10.40;7.68;;;2.70;99.90;;;;;;4995661;28;20044;-93
2021/01/05 00:28:12;;;;;;;10.82;7.97;;;2.70;99.90;;;;;;5006006;28;20041;-92
2021/01/05 00:30:43;;;;;;;11.38;8.15;;;2.70;99.90;;;;;;4975884;28;20062;-91
2021/01/05 00:33:30;;;;;;;11.02;8.60;;;2.70;99.90;;;;;;4993055;28;20081;-93
2021/01/05 00:36:02;;;;;;;10.98;7.78;;;2.70;99.90;;;;;;4974069;28;20046;-88
2021/01/05 00:38:32;;;;;;;11.50;8.55;;;2.70;99.90;;;;;;4991787;28;20057;-92
2021/01/05 00:41:06;;;;;;;12.55;9.38;;;2.70;99.90;;;;;;4990846;28;20074;-94
2021/01/05 00:43:46;;;;;;;11.75;8.60;;;2.70;99.90;;;;;;4994091;28;20034;-92
2021/01/05 00:46:57;;;;;;;12.10;9.15;;;2.70;99.90;;;;;;4994703;28;20030;-92
2021/01/05 00:49:55;;;;;;;;;;;;;;;;;;;;;
2021/01/05 00:56:30;;;;;;;15.00;10.23;;;2.70;99.90;;;;;;4943361;29;20046;-92
2021/01/05 00:59:30;;;;;;;15.95;10.20;;;2.70;99.90;;;;;;4957256;28;20062;-91
2021/01/05 01:02:47;;;;;;;;;;;;;;;;;;;;;
2021/01/05 01:05:32;;;;;;;12.43;9.38;;;2.70;99.90;;;;;;4968584;28;20487;-93
2021/01/05 01:08:16;;;;;;;13.52;9.23;;;2.70;99.90;;;;;;5009138;28;20149;-91
2021/01/05 01:11:15;;;;;;;12.55;9.50;;;2.70;99.90;;;;;;5007960;28;20049;-93
2021/01/05 01:14:01;;;;;;;13.98;9.48;;;2.70;99.90;;;;;;5011171;28;20040;-94
2021/01/05 01:16:59;;;;;;;12.07;8.98;;;2.70;99.90;;;;;;5014128;28;20068;-91
2021/01/05 01:20:05;;;;;;;;;;;;;;;;;;;;;
2021/01/05 01:23:08;;;;;;;;;;;;;;;;;;;;;
2021/01/05 01:25:42;;;;;;;14.68;9.57;;;2.70;99.90;;;;;;4996972;28;20057;-92
2021/01/05 01:28:27;;;;;;;14.45;10.23;;;2.70;99.90;;;;;;4984693;28;20022;-93
2021/01/05 01:31:16;;;;;;;;;;;;;;;;;;;;;
2021/01/05 01:34:01;;;;;;;13.00;8.85;;;2.70;99.90;;;;;;5000691;28;20021;-93
2021/01/05 01:36:32;;;;;;;12.90;8.98;;;2.70;99.90;;;;;;4984875;28;20479;-91
2021/01/05 01:39:08;;;;;;;12.25;8.52;;;2.70;99.90;;;;;;4998750;28;20058;-92
2021/01/05 01:41:50;;;;;;;12.00;8.27;;;2.70;99.90;;;;;;4997035;28;20122;-93
2021/01/05 01:44:28;;;;;;;12.60;9.35;;;2.70;99.90;;;;;;4999562;28;20368;-91
2021/01/05 01:47:25;;;;;;;14.15;9.60;;;2.70;99.90;;;;;;4999976;28;20466;-91
2021/01/05 01:50:09;;;;;;;15.80;10.80;;;2.70;99.90;;;;;;4992958;28;20097;-92
2021/01/05 01:52:59;;;;;;;12.93;9.50;;;2.70;99.90;;;;;;4998909;28;20114;-93
2021/01/05 01:56:14;;;;;;;12.85;9.15;;;2.70;99.90;;;;;;4998764;28;20101;-93
2021/01/05 01:59:24;;;;;;;12.38;8.63;;;2.70;99.90;;;;;;4998687;28;20031;-93
2021/01/05 02:02:05;;;;;;;12.18;8.18;;;2.70;99.90;;;;;;4999753;28;20042;-91
2021/01/05 02:05:01;;;;;;;12.55;8.90;;;2.70;99.90;;;;;;4997177;28;20076;-91
2021/01/05 02:07:44;;;;;;;12.57;9.13;;;2.70;99.90;;;;;;4996998;28;20093;-90
2021/01/05 02:10:10;;;;;;;11.95;8.23;;;2.70;99.90;;;;;;4996994;28;20061;-91
2021/01/05 02:13:07;;;;;;;;;;;;;;;;;;;;;
2021/01/05 02:16:08;;;;;;;11.88;8.82;;;2.70;99.90;;;;;;4996757;28;20042;-93
2021/01/05 02:18:46;;;;;;;12.35;8.15;;;2.70;99.90;;;;;;4997622;28;20463;-91
2021/01/05 02:21:31;;;;;;;12.70;9.10;;;2.80;99.90;;;;;;4996556;28;20040;-92
2021/01/05 02:24:11;;;;;;;13.10;9.32;;;2.80;99.90;;;;;;4998253;28;20120;-93
2021/01/05 02:26:42;;;;;;;12.23;8.43;;;2.70;99.90;;;;;;4996396;28;20094;-94
2021/01/05 02:29:36;;;;;;;16.08;10.38;;;2.80;99.90;;;;;;4996110;28;20108;-93
2021/01/05 02:32:18;;;;;;;;;;;2.80;99.90;;;;;;4990737;28;20042;-93
2021/01/05 02:35:13;;;;;;;15.70;11.10;;;2.80;99.90;;;;;;4988643;28;20040;-92
2021/01/05 02:38:03;;;;;;;13.88;9.18;;;2.70;99.90;;;;;;5007645;28;20045;-92
2021/01/05 02:40:48;;;;;;;15.15;10.25;;;2.80;99.90;;;;;;5005082;28;20109;-92
2021/01/05 02:44:05;;;;;;;14.57;9.95;;;2.80;99.90;;;;;;5018821;28;20028;-93
2021/01/05 02:46:52;;;;;;;12.50;8.90;;;2.80;99.90;;;;;;4996696;28;20036;-92
2021/01/05 02:49:39;;;;;;;15.70;10.98;;;2.80;99.90;;;;;;5000688;28;20089;-93
2021/01/05 02:55:32;;;;;;;15.20;10.07;;;2.80;99.90;;;;;;5009252;28;20038;-92
2021/01/05 02:58:25;;;;;;;15.77;9.98;;;2.80;99.90;;;;;;5015663;28;20023;-93
2021/01/05 03:01:29;;;;;;;13.43;9.60;;;2.80;99.90;;;;;;5017496;28;20085;-95
2021/01/05 03:03:56;;;;;;;;;;;2.80;99.90;;;;;;5019044;28;20308;-95
2021/01/05 03:06:46;;;;;;;14.95;10.25;;;2.80;99.90;;;;;;5018392;28;19894;-94
2021/01/05 03:09:50;;;;;;;15.60;10.88;;;2.80;99.90;;;;;;5001311;28;20125;-94
2021/01/05 03:13:10;;;;;;;13.77;9.07;;;2.80;99.90;;;;;;4995806;28;20026;-93
2021/01/05 03:15:50;;;;;;;13.38;9.20;;;2.80;99.90;;;;;;4936960;29;20186;-93
2021/01/05 03:18:30;;;;;;;14.70;10.18;;;2.80;99.90;;;;;;4920979;29;20059;-93
2021/01/05 03:21:12;;;;;;;14.93;10.25;;;2.80;99.90;;;;;;4982850;28;20459;-92
2021/01/05 03:23:43;;;;;;;15.70;10.80;;;2.80;99.90;;;;;;4995297;28;20037;-94
2021/01/05 03:26:14;;;;;;;15.35;10.35;;;2.80;99.90;;;;;;4994993;28;20026;-93
2021/01/05 03:28:43;;;;;;;14.05;10.10;;;2.80;99.90;;;;;;4996104;28;20031;-93
2021/01/05 03:31:32;;;;;;;15.55;10.75;;;2.80;99.90;;;;;;4995169;28;20026;-93
2021/01/05 03:34:07;;;;;;;14.75;10.68;;;2.90;99.90;;;;;;4990368;28;20050;-93
2021/01/05 03:36:43;;;;;;;17.60;11.48;;;2.80;99.90;;;;;;4994748;28;20038;-92
2021/01/05 03:39:21;;;;;;;15.75;10.70;;;2.90;99.90;;;;;;4994540;28;20081;-93
2021/01/05 03:41:56;;;;;;;15.02;10.15;;;2.90;99.90;;;;;;4990875;28;20113;-93
2021/01/05 03:44:25;;;;;;;17.90;11.85;;;2.80;99.90;;;;;;4995594;28;20023;-93
2021/01/05 03:46:55;;;;;;;15.98;10.45;;;2.80;99.90;;;;;;4994658;28;20185;-93
2021/01/05 03:49:21;;;;;;;17.35;11.32;;;2.80;99.90;;;;;;4994795;28;20030;-92
2021/01/05 03:52:14;;;;;;;17.25;11.63;;;2.80;99.90;;;;;;4995672;28;20486;-95
2021/01/05 03:54:52;;;;;;;17.65;11.57;;;2.90;99.90;;;;;;4991762;28;20030;-95
2021/01/05 03:57:18;;;;;;;16.35;10.70;;;2.90;99.90;;;;;;4980244;28;20030;-93
2021/01/05 03:59:50;;;;;;;17.30;10.80;;;2.90;99.90;;;;;;4994683;28;20038;-93
2021/01/05 04:02:24;;;;;;;16.50;10.95;;;2.90;99.90;;;;;;4994448;28;20041;-93
2021/01/05 04:04:59;;;;;;;17.42;11.43;;;2.80;99.90;;;;;;4994638;28;20023;-93
2021/01/05 04:07:35;;;;;;;20.13;12.82;;;2.80;99.90;;;;;;4994062;28;20542;-94
2021/01/05 04:10:01;;;;;;;19.20;12.80;;;2.90;99.90;;;;;;4994483;28;20394;-92
2021/01/05 04:12:34;;;;;;;18.27;12.00;;;2.80;99.90;;;;;;4993934;28;20023;-93
2021/01/05 04:15:00;;;;;;;20.15;11.75;;;2.80;99.90;;;;;;4994601;28;20080;-92
2021/01/05 04:17:28;;;;;;;17.27;11.63;;;2.80;99.90;;;;;;4977959;28;20026;-92
2021/01/05 04:20:04;;;;;;;17.27;11.93;;;2.80;99.90;;;;;;4994104;28;20060;-94
2021/01/05 04:22:35;;;;;;;16.65;12.18;;;2.80;99.90;;;;;;4998569;28;20026;-95
2021/01/05 04:25:11;;;;;;;20.50;12.13;;;2.80;99.90;;;;;;4999795;28;20033;-93
2021/01/05 04:27:49;;;;;;;19.00;13.13;;;2.80;99.90;;;;;;4998615;28;20027;-91
2021/01/05 04:30:24;;;;;;;18.63;11.68;;;2.80;99.90;;;;;;4999028;28;20076;-93
2021/01/05 04:32:54;;;;;;;18.42;12.32;;;2.80;99.90;;;;;;4998040;28;20121;-94
2021/01/05 04:35:22;;;;;;;19.48;13.40;;;2.80;99.90;;;;;;4982200;28;20037;-93
2021/01/05 04:37:48;;;;;;;17.65;11.88;;;2.80;99.90;;;;;;4997696;28;20475;-92
2021/01/05 04:40:35;;;;;;;18.98;12.68;;;2.80;99.90;;;;;;4997807;28;20049;-93
2021/01/05 04:43:38;;;;;;;17.67;11.52;;;2.80;99.90;;;;;;4981621;28;20050;-92
2021/01/05 04:46:19;;;;;;;18.00;11.15;;;2.80;99.90;;;;;;4989451;28;20082;-92
2021/01/05 04:49:37;;;;;;;22.50;13.60;;;2.80;99.90;;;;;;4998145;28;20459;-92
2021/01/05 04:52:38;;;;;;;21.23;12.30;;;2.80;99.90;;;;;;4966134;28;20030;-93
2021/01/05 04:55:22;;;;;;;20.05;12.10;;;2.80;99.90;;;;;;4998107;28;20101;-93
2021/01/05 04:58:00;;;;;;;17.95;11.63;;;2.80;99.90;;;;;;4997549;28;20034;-93
2021/01/05 05:00:37;;;;;;;19.55;12.93;;;2.80;99.90;;;;;;4997758;28;20038;-92
2021/01/05 05:03:31;;;;;;;18.10;12.32;;;2.80;99.90;;;;;;4983189;28;20657;-92
2021/01/05 05:06:13;;;;;;;18.60;11.88;;;2.80;99.90;;;;;;4997719;28;20470;-91
2021/01/05 05:09:24;;;;;;;19.35;12.07;;;2.80;99.90;;;;;;4997477;28;20105;-93
2021/01/05 05:12:34;;;;;;;17.30;11.63;;;2.80;99.90;;;;;;4998941;28;20031;-94
2021/01/05 05:15:29;;;;;;;15.95;10.10;;;2.80;99.90;;;;;;4997583;28;20113;-93
2021/01/05 05:18:29;;;;;;;;;;;;;;;;;;;;;
2021/01/05 05:21:36;;;;;;;16.77;10.60;;;2.80;99.90;;;;;;4997827;28;20044;-93
2021/01/05 05:24:36;;;;;;;15.68;11.30;;;2.90;99.90;;;;;;4996588;28;20026;-92
2021/01/05 05:27:16;;;;;;;18.15;11.45;;;2.80;99.90;;;;;;4997588;28;20386;-94
2021/01/05 05:29:52;;;;;;;17.80;11.95;;;2.80;99.90;;;;;;4997389;28;20041;-92
2021/01/05 05:33:22;;;;;;;17.77;11.32;;;2.80;99.90;;;;;;4996851;28;20053;-93
2021/01/05 05:36:11;;;;;;;16.73;11.18;;;2.80;99.90;;;;;;4981742;28;20482;-94
2021/01/05 05:39:23;;;;;;;16.80;11.35;;;2.90;99.90;;;;;;4996999;28;20049;-93
2021/01/05 05:42:46;;;;;;;19.63;12.40;;;2.80;99.90;;;;;;4996546;28;20486;-93
2021/01/05 05:45:25;;;;;;;18.17;11.18;;;2.90;99.90;;;;;;4938189;29;20024;-94
2021/01/05 05:48:52;;;;;;;17.08;11.63;;;2.80;99.90;;;;;;4921387;29;20034;-92
2021/01/05 05:51:37;;;;;;;16.48;10.77;;;2.90;99.90;;;;;;4876172;29;20544;-92
2021/01/05 05:54:23;;;;;;;18.70;12.48;;;2.80;99.90;;;;;;4930026;28;20034;-92
2021/01/05 05:56:53;;;;;;;16.65;10.70;;;2.80;99.90;;;;;;4980201;28;20085;-92
2021/01/05 05:59:40;;;;;;;16.33;11.05;;;2.80;99.90;;;;;;4996482;28;20065;-91
2021/01/05 06:02:20;;;;;;;17.88;11.27;;;2.80;99.90;;;;;;4996298;28;20414;-90
2021/01/05 06:04:50;;;;;;;16.98;11.55;;;2.80;99.90;;;;;;4997535;28;20022;-92
2021/01/05 06:07:21;;;;;;;20.52;12.35;;;2.90;99.90;;;;;;4997377;28;20061;-92
2021/01/05 06:09:52;;;;;;;17.75;10.93;;;2.80;99.90;;;;;;4996592;28;20054;-92
2021/01/05 06:12:32;;;;;;;15.82;10.43;;;2.90;99.90;;;;;;4996308;28;20113;-93
2021/01/05 06:15:00;;;;;;;17.20;10.68;;;2.90;99.90;;;;;;4979066;28;20434;-92
2021/01/05 06:17:33;;;;;;;16.13;10.52;;;2.90;99.90;;;;;;4993583;28;20061;-93
2021/01/05 06:20:00;;;;;;;16.85;10.25;;;2.90;99.90;;;;;;4993852;28;20065;-93
2021/01/05 06:22:25;;;;;;;18.33;11.70;;;2.90;99.90;;;;;;4977741;28;20030;-93
2021/01/05 06:25:01;;;;;;;15.32;10.57;;;2.90;99.90;;;;;;4994356;28;20046;-94
2021/01/05 06:27:32;;;;;;;17.10;11.57;;;2.90;99.90;;;;;;4995389;28;20314;-92
2021/01/05 06:30:05;;;;;;;17.08;11.23;;;2.90;99.90;;;;;;4991267;28;20022;-92
2021/01/05 06:32:39;;;;;;;18.13;11.15;;;2.90;99.90;;;;;;4998469;28;20068;-94
2021/01/05 06:35:23;;;;;;;;;;;;;;;;;;;;;
2021/01/05 06:38:11;;;;;;;18.63;11.15;;;2.90;99.90;;;;;;4997024;28;20034;-92
2021/01/05 06:40:39;;;;;;;18.92;12.02;;;2.90;99.90;;;;;;4996206;28;20108;-93
2021/01/05 06:43:13;;;;;;;18.77;11.63;;;2.90;99.90;;;;;;5012451;28;20377;-93
2021/01/05 06:45:55;;;;;;;17.88;11.40;;;2.90;99.90;;;;;;5003147;28;20034;-92
2021/01/05 06:48:30;;;;;;;18.40;11.90;;;2.90;99.90;;;;;;5001774;28;20022;-94
2021/01/05 06:51:07;;;;;;;19.73;12.30;;;3.00;99.90;;;;;;4999324;28;20038;-92
2021/01/05 06:53:39;;;;;;;17.52;11.27;;;2.90;99.90;;;;;;5000544;28;20034;-94
2021/01/05 06:56:05;;;;;;;17.88;11.27;;;2.90;99.90;;;;;;4984989;28;20025;-92
2021/01/05 06:58:34;;;;;;;19.77;12.15;;;3.00;99.90;;;;;;5025404;28;20118;-94
2021/01/05 07:01:05;;;;;;;18.00;12.38;;;3.00;99.90;;;;;;5000780;28;20084;-94
2021/01/05 07:03:35;;;;;;;19.33;13.63;;;3.00;99.90;;;;;;4987006;28;20537;-95
2021/01/05 07:09:21;;;;;;;;;;;;;;;;;;;;;
2021/01/05 07:12:00;;;;;;;19.55;12.23;;;3.00;99.90;;;;;;5016596;28;20022;-93
2021/01/05 07:14:29;;;;;;;20.83;12.55;;;3.00;99.90;;;;;;4999081;28;20026;-91
2021/01/05 07:16:59;;;;;;;19.55;11.98;;;2.90;99.90;;;;;;4967156;28;20118;-92
2021/01/05 07:19:55;;;;;;;22.00;14.05;;;3.00;99.90;;;;;;5016484;28;20040;-93
2021/01/05 07:22:32;;;;;;;20.15;13.05;;;3.00;99.90;;;;;;4982656;28;20381;-92
2021/01/05 07:28:21;;;;;;;19.38;11.82;;;3.00;99.90;;;;;;5001851;28;20080;-93
2021/01/05 07:31:15;;;;;;;20.05;12.38;;;3.00;99.90;;;;;;4983714;28;20490;-94
2021/01/05 07:34:06;;;;;;;21.20;13.15;;;3.00;99.90;;;;;;5023255;28;20025;-92
2021/01/05 07:37:28;;;;;;;20.63;12.57;;;3.00;99.90;;;;;;5008003;28;20055;-92
2021/01/05 07:39:57;;;;;;;20.15;12.30;;;3.00;99.90;;;;;;5036275;28;20045;-92
2021/01/05 07:42:38;;;;;;;18.38;11.20;;;3.00;99.90;;;;;;5020285;28;20049;-93
2021/01/05 07:45:22;;;;;;;19.05;11.52;;;3.00;99.90;;;;;;5006297;28;20030;-90
2021/01/05 07:47:57;;;;;;;18.40;11.70;;;3.00;99.90;;;;;;5026583;23;20058;-90
2021/01/05 07:50:26;;;;;;;20.30;11.95;;;3.10;99.90;;;;;;5005098;28;20037;-87
2021/01/05 07:52:52;;;;;;;20.95;13.75;;;3.10;99.90;;;;;;5004904;28;20115;-91
2021/01/05 07:55:21;;;;;;;21.75;13.68;;;3.10;99.90;;;;;;4998197;28;20468;-89
2021/01/05 07:57:48;;;;;;;20.92;13.45;;;3.10;99.90;;;;;;5015481;28;20160;-89
2021/01/05 08:00:20;;;;;;;21.20;14.00;;;3.00;99.90;;;;;;4998033;28;20081;-90
2021/01/05 08:02:47;;;;;;;22.63;14.02;;;3.00;99.90;;;;;;5004807;28;20025;-88
2021/01/05 08:05:17;;;;;;;21.42;12.82;;;3.10;99.90;;;;;;4990486;28;20033;-89
2021/01/05 08:07:46;;;;;;;20.83;12.75;;;3.10;99.90;;;;;;5004996;28;20034;-91
2021/01/05 08:10:23;;;;;;;23.48;14.75;;;3.10;99.90;;;;;;5003048;28;20021;-89
2021/01/05 08:12:49;;;;;;;25.30;15.25;;;3.00;99.90;;;;;;5001014;28;20035;-90
2021/01/05 08:15:24;;;;;;;21.90;13.57;;;3.10;99.90;;;;;;5000353;28;20029;-89
2021/01/05 08:17:50;;;;;;;21.33;13.93;;;3.10;99.90;;;;;;5002097;28;20022;-91
2021/01/05 08:20:19;;;;;;;22.98;14.48;;;3.00;99.90;;;;;;4985990;28;20065;-89
2021/01/05 08:22:45;;;;;;;20.60;14.25;;;3.10;99.90;;;;;;5001068;28;20484;-90
2021/01/05 08:25:11;;;;;;;22.42;14.70;;;3.10;99.90;;;;;;5001707;28;20057;-89
2021/01/05 08:27:41;;;;;;;20.02;13.27;;;3.00;99.90;;;;;;5019226;28;20488;-91
2021/01/05 08:30:34;;;;;;;20.98;14.45;;;3.10;99.90;;;;;;5002300;28;20026;-91
2021/01/05 08:33:18;;;;;;;21.73;14.55;;;3.10;99.90;;;;;;5002139;28;20041;-90
2021/01/05 08:35:52;;;;;;;21.88;15.35;;;3.10;99.90;;;;;;5003795;28;20030;-92
2021/01/05 08:38:17;;;;;;;22.02;14.07;;;3.10;99.90;;;;;;5002724;28;20485;-90
2021/01/05 08:40:46;;;;;;;21.02;14.07;;;3.10;99.90;;;;;;5002493;28;20045;-90
2021/01/05 08:43:13;;;;;;;21.40;13.88;;;3.10;99.90;;;;;;5003351;28;20041;-90
2021/01/05 08:45:40;;;;;;;23.52;14.73;;;3.10;99.90;;;;;;5002166;28;20040;-90
2021/01/05 08:48:14;;;;;;;21.40;14.60;;;3.10;99.90;;;;;;5000933;28;20046;-90
2021/01/05 08:50:48;;;;;;;22.30;14.60;;;3.10;99.90;;;;;;5005091;28;20049;-92
2021/01/05 08:53:17;;;;;;;22.48;15.00;;;3.10;99.90;;;;;;5005535;28;20022;-91
2021/01/05 08:55:49;;;;;;;23.08;15.27;;;3.10;99.90;;;;;;5004451;28;20094;-91
2021/01/05 08:58:15;;;;;;;21.95;14.70;;;3.10;99.90;;;;;;5006466;28;20037;-93
2021/01/05 09:00:40;;;;;;;21.77;15.00;;;3.10;99.90;;;;;;5005424;28;20500;-91
2021/01/05 09:03:06;;;;;;;20.90;14.63;;;3.10;99.90;;;;;;5005762;28;20025;-88
2021/01/05 09:06:13;;;;;;;22.55;14.70;;;3.10;99.90;;;;;;5006799;28;20082;-92
2021/01/05 09:08:40;;;;;;;20.73;13.68;;;3.20;99.90;;;;;;4997815;23;20065;-91
2021/01/05 09:11:22;;;;;;;20.92;14.75;;;3.20;99.90;;;;;;5009162;28;20042;-90
2021/01/05 09:13:48;;;;;;;22.30;15.32;;;3.20;99.90;;;;;;5010774;28;20021;-90
2021/01/05 09:16:39;;;;;;;22.00;14.35;;;3.20;99.90;;;;;;5011257;28;20029;-92
2021/01/05 09:19:17;;;;;;;22.80;15.18;;;3.20;99.90;;;;;;5010474;28;20034;-92
2021/01/05 09:21:48;;;;;;;21.67;14.85;;;3.20;99.90;;;;;;5007005;28;20133;-92
2021/01/05 09:26:55;;;;;;;21.20;14.50;;;3.20;99.90;;;;;;4996689;28;20042;-91
2021/01/05 09:32:38;;;;;;;20.08;12.82;;;3.20;99.90;;;;;;5019089;23;20504;-91
2021/01/05 09:35:05;;;;;;;23.52;15.75;;;3.20;99.90;;;;;;5000333;28;20026;-92
2021/01/05 09:37:31;;;;;;;20.40;13.50;;;3.20;99.90;;;;;;5004098;28;20014;-91
2021/01/05 09:39:57;;;;;;;21.67;14.20;;;3.30;99.90;;;;;;5022179;28;20384;-92
2021/01/05 09:42:23;;;;;;;18.77;12.77;;;3.30;99.90;;;;;;5021468;28;20014;-92
2021/01/05 09:44:50;;;;;;;20.45;12.88;;;3.30;99.90;;;;;;5021973;28;20028;-92
2021/01/05 09:47:20;;;;;;;19.75;13.80;;;3.30;99.90;;;;;;5022986;28;20017;-94
2021/01/05 09:49:50;;;;;;;19.00;13.20;;;3.30;99.90;;;;;;5022065;28;20117;-92
2021/01/05 09:52:17;;;;;;;18.85;12.93;;;3.30;99.90;;;;;;5022762;28;20081;-93
2021/01/05 09:54:48;;;;;;;20.92;14.13;;;3.30;99.90;;;;;;5022138;28;20081;-92
2021/01/05 09:57:24;;;;;;;19.90;13.93;;;3.40;99.90;;;;;;5023304;28;20032;-93
2021/01/05 09:59:50;;;;;;;17.75;12.68;;;3.40;99.90;;;;;;5021539;28;20029;-91
2021/01/05 10:02:18;;;;;;;17.75;12.52;;;3.30;99.90;;;;;;5022321;28;20056;-90
2021/01/05 10:04:43;;;;;;;17.23;10.90;;;3.40;99.90;;;;;;5022450;28;20028;-91
2021/01/05 10:07:09;;;;;;;15.43;10.75;;;3.30;99.90;;;;;;5024784;28;20026;-90
2021/01/05 10:09:36;;;;;;;17.85;12.13;;;3.30;99.90;;;;;;5024105;28;20032;-92
2021/01/05 10:12:11;;;;;;;17.15;11.82;;;3.30;99.90;;;;;;5024004;28;20025;-92
2021/01/05 10:14:36;;;;;;;13.48;10.27;;;3.30;99.90;;;;;;5025771;28;20025;-91
2021/01/05 10:17:05;;;;;;;14.10;10.20;;;3.40;99.90;;;;;;5027190;28;20108;-90
2021/01/05 10:19:31;;;;;;;15.20;10.95;;;3.40;99.90;;;;;;5022297;28;20018;-92
2021/01/05 10:21:56;;;;;;;13.27;10.02;;;3.40;99.90;;;;;;5021657;28;20021;-91
2021/01/05 10:24:24;;;;;;;12.52;9.32;;;3.40;99.90;;;;;;5021218;28;20044;-91
2021/01/05 10:26:55;;;;;;;14.32;10.50;;;3.40;99.90;;;;;;5023362;28;20379;-91
2021/01/05 10:29:24;;;;;;;15.30;11.48;;;3.40;99.90;;;;;;5020032;28;20022;-92
2021/01/05 10:31:51;;;;;;;14.27;10.63;;;3.40;99.90;;;;;;5019260;28;20050;-91
2021/01/05 10:34:23;;;;;;;14.27;10.27;;;3.40;99.90;;;;;;5019108;28;20029;-92
2021/01/05 10:36:57;;;;;;;15.35;10.48;;;3.40;99.90;;;;;;5019067;28;20032;-91
2021/01/05 10:39:24;;;;;;;13.38;10.73;;;3.40;99.90;;;;;;5020938;28;20035;-90
2021/01/05 10:41:50;;;;;;;14.05;10.52;;;3.40;99.90;;;;;;5020491;28;20025;-91
2021/01/05 10:44:21;;;;;;;14.68;10.75;;;3.40;99.90;;;;;;5019520;28;20048;-91
2021/01/05 10:46:47;;;;;;;14.50;10.38;;;3.50;99.90;;;;;;5019410;28;20107;-92
2021/01/05 10:49:18;;;;;;;13.95;9.60;;;3.40;99.90;;;;;;5019137;28;20365;-94
2021/01/05 10:51:52;;;;;;;14.23;10.57;;;3.40;99.90;;;;;;5019886;28;20021;-91
2021/01/05 10:54:19;;;;;;;14.77;11.80;;;3.40;99.90;;;;;;5019074;28;20114;-92
2021/01/05 10:56:45;;;;;;;12.65;9.77;;;3.50;99.90;;;;;;5019433;28;20018;-92
2021/01/05 10:59:14;;;;;;;14.23;10.50;;;3.50;99.90;;;;;;5018835;28;20032;-92
2021/01/05 11:01:43;;;;;;;14.07;9.80;;;3.50;99.90;;;;;;5018981;28;20156;-92
2021/01/05 11:04:08;;;;;;;13.60;10.32;;;3.50;99.90;;;;;;5020233;28;20029;-92
2021/01/05 11:06:37;;;;;;;14.40;11.02;;;3.50;99.90;;;;;;5020421;28;20049;-91
2021/01/05 11:09:05;;;;;;;13.68;9.70;;;3.50;99.90;;;;;;5031696;28;20037;-91
2021/01/05 11:11:31;;;;;;;14.50;10.43;;;3.50;99.90;;;;;;5021820;28;20038;-90
2021/01/05 11:13:57;;;;;;;13.27;9.77;;;3.50;99.90;;;;;;5021576;28;20089;-88
2021/01/05 11:16:23;;;;;;;13.75;10.80;;;3.50;99.90;;;;;;5021068;28;20014;-89
2021/01/05 11:18:48;;;;;;;16.83;12.05;;;3.50;99.90;;;;;;5021464;28;20030;-89
2021/01/05 11:21:15;;;;;;;14.40;10.50;;;3.50;99.90;;;;;;5020903;28;20029;-90
2021/01/05 11:23:42;;;;;;;13.23;10.27;;;3.50;99.90;;;;;;5009687;28;20022;-90
2021/01/05 11:26:28;;;;;;;13.93;9.85;;;3.50;99.90;;;;;;4998485;28;20029;-91
2021/01/05 11:29:24;;;;;;;15.70;11.45;;;3.60;99.90;;;;;;4999014;28;20380;-91
2021/01/05 11:32:08;;;;;;;12.52;9.35;;;3.60;99.90;;;;;;4929254;29;20051;-91
2021/01/05 11:34:38;;;;;;;13.73;9.82;;;3.60;99.90;;;;;;4929843;29;20027;-93
2021/01/05 11:37:09;;;;;;;13.30;9.90;;;3.60;99.90;;;;;;5007831;28;20084;-90
2021/01/05 11:39:42;;;;;;;13.38;9.38;;;3.60;99.90;;;;;;5005011;28;20029;-92
2021/01/05 11:42:14;;;;;;;15.32;10.80;;;3.60;99.90;;;;;;5007858;28;20468;-93
2021/01/05 11:44:47;;;;;;;15.35;10.68;;;3.60;99.90;;;;;;5079856;23;20072;-91
2021/01/05 11:50:55;;;;;;;16.92;11.85;;;3.60;99.90;;;;;;4980076;28;20041;-91
2021/01/05 11:53:20;;;;;;;17.45;11.05;;;3.70;99.90;;;;;;5035743;28;20033;-93
2021/01/05 11:58:17;;;;;;;16.63;11.85;;;3.70;99.90;;;;;;5038313;28;20049;-93
2021/01/05 12:00:43;;;;;;;18.55;13.23;;;3.70;99.90;;;;;;5024648;28;20064;-92
2021/01/05 12:03:12;;;;;;;17.20;12.20;;;3.70;99.90;;;;;;5024738;28;20018;-91
2021/01/05 12:05:37;;;;;;;16.02;11.18;;;3.70;99.90;;;;;;5027778;28;20029;-92
2021/01/05 12:08:03;;;;;;;16.40;11.43;;;3.70;99.90;;;;;;5026139;28;20021;-90
2021/01/05 12:10:29;;;;;;;18.90;12.70;;;3.70;99.90;;;;;;5043958;28;20045;-93
2021/01/05 12:12:55;;;;;;;18.42;13.35;;;3.70;99.90;;;;;;5027242;28;20030;-91
2021/01/05 12:15:22;;;;;;;21.10;13.25;;;3.70;99.90;;;;;;5026729;28;20068;-93
2021/01/05 12:17:48;;;;;;;20.45;12.98;;;3.70;99.90;;;;;;5025776;28;20029;-91
2021/01/05 12:20:15;;;;;;;21.15;14.68;;;3.70;99.90;;;;;;5025164;28;20030;-90
2021/01/05 12:22:40;;;;;;;23.50;15.38;;;3.70;99.90;;;;;;5025588;28;20021;-91
2021/01/05 12:25:06;;;;;;;22.73;14.98;;;3.70;99.90;;;;;;5025748;28;20035;-92
2021/01/05 12:27:32;;;;;;;25.05;15.40;;;3.70;99.90;;;;;;5024017;28;20044;-93
2021/01/05 12:30:07;;;;;;;25.13;16.35;;;3.70;99.90;;;;;;5023061;28;20025;-92
2021/01/05 12:32:32;;;;;;;27.52;17.50;;;3.70;99.90;;;;;;5022984;28;20111;-91
2021/01/05 12:35:00;;;;;;;24.45;16.48;;;3.70;99.90;;;;;;5094180;23;20054;-89
2021/01/05 12:37:30;;;;;;;24.00;16.95;;;3.70;99.90;;;;;;5036312;28;20026;-89
2021/01/05 12:39:56;;;;;;;24.10;16.48;;;3.70;99.90;;;;;;5042163;28;20099;-90
2021/01/05 12:42:24;;;;;;;23.05;15.55;;;3.70;99.90;;;;;;5043007;28;20025;-90
2021/01/05 12:44:52;;;;;;;23.52;15.50;;;3.70;99.90;;;;;;5045058;28;20029;-88
2021/01/05 12:47:24;;;;;;;24.13;15.75;;;3.70;99.90;;;;;;5044561;28;20116;-90
2021/01/05 12:49:54;;;;;;;21.42;15.15;;;3.70;99.90;;;;;;5206448;23;20059;-92
2021/01/05 12:52:20;;;;;;;26.15;18.00;;;3.70;99.90;;;;;;5042130;28;20056;-90
2021/01/05 12:54:49;;;;;;;25.02;16.83;;;3.70;99.90;;;;;;5037111;28;20014;-89
2021/01/05 12:57:18;;;;;;;22.98;15.13;;;3.70;99.90;;;;;;5041128;28;20037;-86
2021/01/05 12:59:47;;;;;;;18.58;13.50;;;3.70;99.90;;;;;;5040657;28;20046;-89
2021/01/05 13:02:17;;;;;;;21.15;13.85;;;3.70;99.90;;;;;;5042720;28;20070;-89
2021/01/05 13:04:53;;;;;;;21.63;14.65;;;3.80;99.90;;;;;;5039651;28;20108;-92
2021/01/05 13:07:21;;;;;;;23.30;15.68;;;3.80;99.90;;;;;;5034257;28;20029;-89
2021/01/05 13:09:55;;;;;;;19.80;14.48;;;3.80;99.90;;;;;;5033872;28;20029;-87
2021/01/05 13:12:21;;;;;;;19.75;13.40;;;3.80;99.90;;;;;;5036934;28;20022;-90
2021/01/05 13:14:47;;;;;;;19.65;13.27;;;3.80;99.90;;;;;;5041112;28;20128;-90
2021/01/05 13:17:13;;;;;;;22.80;15.13;;;3.80;99.90;;;;;;5032588;28;20044;-87
2021/01/05 13:19:38;;;;;;;19.02;13.38;;;3.80;99.90;;;;;;5043428;28;20541;-87
2021/01/05 13:22:04;;;;;;;24.20;16.50;;;3.80;99.90;;;;;;5047731;28;20483;-87
2021/01/05 13:24:31;;;;;;;20.98;14.75;;;3.80;99.90;;;;;;5041409;28;20040;-90
2021/01/05 13:27:05;;;;;;;20.90;14.15;;;3.80;99.90;;;;;;5062120;28;20025;-91
2021/01/05 13:29:40;;;;;;;20.85;14.38;;;3.80;99.90;;;;;;5045867;28;20025;-83
2021/01/05 13:32:14;;;;;;;20.88;13.85;;;3.80;99.90;;;;;;5043964;28;20029;-85
2021/01/05 13:34:41;;;;;;;22.55;15.60;;;3.80;99.90;;;;;;5045721;28;20048;-88
2021/01/05 13:37:08;;;;;;;25.23;15.70;;;3.80;99.90;;;;;;5045271;28;20029;-85
2021/01/05 13:39:34;;;;;;;26.83;16.48;;;3.80;99.90;;;;;;5047968;28;20072;-88
2021/01/05 13:42:01;;;;;;;24.00;15.30;;;3.70;99.90;;;;;;5050505;28;20089;-86
2021/01/05 13:44:27;;;;;;;26.02;14.98;;;3.70;99.90;;;;;;5059513;28;20010;-87
2021/01/05 13:46:57;;;;;;;21.83;15.18;;;3.70;99.90;;;;;;5051923;28;20022;-86
2021/01/05 13:49:23;;;;;;;25.52;16.30;;;3.70;99.90;;;;;;5033986;28;20053;-85
2021/01/05 13:51:49;;;;;;;22.65;15.68;;;3.70;99.90;;;;;;5039060;28;20032;-86
2021/01/05 13:54:18;;;;;;;24.20;15.27;;;3.70;99.90;;;;;;5033057;28;20031;-87
2021/01/05 13:56:44;;;;;;;23.13;15.95;;;3.70;99.90;;;;;;5022252;28;20967;-83
2021/01/05 13:59:09;;;;;;;21.23;14.07;;;3.70;99.90;;;;;;5030487;28;20124;-85
2021/01/05 14:01:35;;;;;;;22.23;14.98;;;3.70;99.90;;;;;;5027533;28;20041;-85
2021/01/05 14:04:01;;;;;;;20.15;13.32;;;3.70;99.90;;;;;;5029021;28;20017;-86
2021/01/05 14:06:35;;;;;;;20.05;13.73;;;3.80;99.90;;;;;;5028988;28;20083;-90